sensor_id;sensor_type;location;lat;lon;timestamp;pressure;altitude;pressure_sealevel;temperature;humidity
70011;BME280;59543;37.950;-122.338;2023-04-29T00:01:42;101282.31;;;17.49;63.21
70011;BME280;59543;37.950;-122.338;2023-04-29T00:04:08;101288.09;;;17.14;65.18
70011;BME280;59543;37.950;-122.338;2023-04-29T00:06:35;101288.09;;;17.14;64.30
70011;BME280;59543;37.950;-122.338;2023-04-29T00:09:01;101302.53;;;16.84;66.09
70011;BME280;59543;37.950;-122.338;2023-04-29T00:11:29;101297.84;;;16.61;67.01
70011;BME280;59543;37.950;-122.338;2023-04-29T00:13:55;101305.97;;;16.78;67.23
70011;BME280;59543;37.950;-122.338;2023-04-29T00:16:21;101304.91;;;16.31;67.72
70011;BME280;59543;37.950;-122.338;2023-04-29T00:18:47;101305.41;;;16.18;68.72
70011;BME280;59543;37.950;-122.338;2023-04-29T00:21:14;101307.69;;;16.54;68.57
70011;BME280;59543;37.950;-122.338;2023-04-29T00:23:41;101315.22;;;16.44;68.38
70011;BME280;59543;37.950;-122.338;2023-04-29T00:26:07;101309.44;;;16.39;68.96
70011;BME280;59543;37.950;-122.338;2023-04-29T00:28:33;101313.72;;;16.17;69.37
70011;BME280;59543;37.950;-122.338;2023-04-29T00:30:59;101310.84;;;16.27;69.40
70011;BME280;59543;37.950;-122.338;2023-04-29T00:33:26;101316.25;;;16.35;68.32
70011;BME280;59543;37.950;-122.338;2023-04-29T00:35:52;101317.94;;;16.44;68.38
70011;BME280;59543;37.950;-122.338;2023-04-29T00:38:18;101316.09;;;16.20;68.99
70011;BME280;59543;37.950;-122.338;2023-04-29T00:40:46;101319.69;;;15.96;69.88
70011;BME280;59543;37.950;-122.338;2023-04-29T00:43:12;101315.47;;;15.77;70.72
70011;BME280;59543;37.950;-122.338;2023-04-29T00:45:38;101318.28;;;15.51;71.94
70011;BME280;59543;37.950;-122.338;2023-04-29T00:48:05;101322.50;;;15.45;72.24
70011;BME280;59543;37.950;-122.338;2023-04-29T00:50:31;101316.22;;;15.45;72.75
70011;BME280;59543;37.950;-122.338;2023-04-29T00:52:58;101329.13;;;15.51;72.74
70011;BME280;59543;37.950;-122.338;2023-04-29T00:55:24;101326.44;;;15.67;71.95
70011;BME280;59543;37.950;-122.338;2023-04-29T00:57:52;101331.34;;;15.64;71.70
70011;BME280;59543;37.950;-122.338;2023-04-29T01:00:18;101331.34;;;15.64;71.80
70011;BME280;59543;37.950;-122.338;2023-04-29T01:02:47;101335.34;;;15.27;72.59
70011;BME280;59543;37.950;-122.338;2023-04-29T01:05:14;101325.44;;;15.01;73.70
70011;BME280;59543;37.950;-122.338;2023-04-29T01:10:29;101328.34;;;14.74;75.57
70011;BME280;59543;37.950;-122.338;2023-04-29T01:13:06;101323.59;;;15.02;74.97
70011;BME280;59543;37.950;-122.338;2023-04-29T01:16:00;101332.78;;;14.83;75.72
70011;BME280;59543;37.950;-122.338;2023-04-29T01:18:52;101330.59;;;14.78;75.61
70011;BME280;59543;37.950;-122.338;2023-04-29T01:21:19;101333.81;;;14.82;75.42
70011;BME280;59543;37.950;-122.338;2023-04-29T01:23:46;101325.13;;;14.70;75.65
70011;BME280;59543;37.950;-122.338;2023-04-29T01:26:12;101323.81;;;14.48;76.55
70011;BME280;59543;37.950;-122.338;2023-04-29T01:34:17;101312.34;;;14.28;78.03
70011;BME280;59543;37.950;-122.338;2023-04-29T01:42:36;101309.50;;;13.86;80.37
70011;BME280;59543;37.950;-122.338;2023-04-29T01:45:06;101315.81;;;13.94;80.18
70011;BME280;59543;37.950;-122.338;2023-04-29T01:47:35;101312.16;;;14.04;79.93
70011;BME280;59543;37.950;-122.338;2023-04-29T01:50:02;101312.72;;;13.89;80.35
70011;BME280;59543;37.950;-122.338;2023-04-29T01:52:28;101318.00;;;13.73;81.12
70011;BME280;59543;37.950;-122.338;2023-04-29T01:54:54;101308.84;;;13.66;81.91
70011;BME280;59543;37.950;-122.338;2023-04-29T01:57:21;101313.88;;;13.87;81.32
70011;BME280;59543;37.950;-122.338;2023-04-29T01:59:48;101317.06;;;13.82;81.09
70011;BME280;59543;37.950;-122.338;2023-04-29T02:02:14;101313.94;;;13.69;81.69
70011;BME280;59543;37.950;-122.338;2023-04-29T02:04:40;101317.41;;;13.61;82.41
70011;BME280;59543;37.950;-122.338;2023-04-29T02:07:07;101302.25;;;13.50;83.05
70011;BME280;59543;37.950;-122.338;2023-04-29T02:09:33;101318.63;;;13.85;81.59
70011;BME280;59543;37.950;-122.338;2023-04-29T02:12:00;101312.81;;;13.44;83.07
70011;BME280;59543;37.950;-122.338;2023-04-29T02:14:26;101316.16;;;13.56;82.67
70011;BME280;59543;37.950;-122.338;2023-04-29T02:16:52;101317.38;;;13.43;83.14
70011;BME280;59543;37.950;-122.338;2023-04-29T02:19:18;101310.00;;;13.45;82.86
70011;BME280;59543;37.950;-122.338;2023-04-29T02:21:45;101315.31;;;13.55;82.71
70011;BME280;59543;37.950;-122.338;2023-04-29T02:24:11;101312.38;;;13.31;83.25
70011;BME280;59543;37.950;-122.338;2023-04-29T02:26:37;101308.06;;;13.10;84.59
70011;BME280;59543;37.950;-122.338;2023-04-29T02:29:03;101313.63;;;13.09;85.15
70011;BME280;59543;37.950;-122.338;2023-04-29T02:31:30;101306.91;;;13.13;85.47
70011;BME280;59543;37.950;-122.338;2023-04-29T02:33:56;101311.13;;;12.97;85.38
70011;BME280;59543;37.950;-122.338;2023-04-29T02:36:22;101317.03;;;12.83;86.25
70011;BME280;59543;37.950;-122.338;2023-04-29T02:38:49;101317.97;;;12.92;85.37
70011;BME280;59543;37.950;-122.338;2023-04-29T02:41:16;101321.75;;;12.71;86.55
70011;BME280;59543;37.950;-122.338;2023-04-29T02:43:43;101324.03;;;12.76;86.63
70011;BME280;59543;37.950;-122.338;2023-04-29T02:46:09;101331.13;;;12.77;86.85
70011;BME280;59543;37.950;-122.338;2023-04-29T02:48:35;101326.31;;;12.71;86.90
70011;BME280;59543;37.950;-122.338;2023-04-29T02:51:02;101329.13;;;12.79;86.20
70011;BME280;59543;37.950;-122.338;2023-04-29T02:53:28;101332.91;;;12.58;87.82
70011;BME280;59543;37.950;-122.338;2023-04-29T02:55:55;101336.00;;;12.64;88.35
70011;BME280;59543;37.950;-122.338;2023-04-29T02:58:22;101336.78;;;12.46;88.70
70011;BME280;59543;37.950;-122.338;2023-04-29T03:00:48;101341.59;;;12.52;88.19
70011;BME280;59543;37.950;-122.338;2023-04-29T03:03:14;101342.66;;;12.22;88.92
70011;BME280;59543;37.950;-122.338;2023-04-29T03:05:40;101343.06;;;12.18;89.64
70011;BME280;59543;37.950;-122.338;2023-04-29T03:08:07;101344.66;;;12.10;90.20
70011;BME280;59543;37.950;-122.338;2023-04-29T03:10:35;101352.19;;;12.07;90.33
70011;BME280;59543;37.950;-122.338;2023-04-29T03:13:01;101347.78;;;12.16;90.57
70011;BME280;59543;37.950;-122.338;2023-04-29T03:15:28;101357.00;;;12.13;91.08
70011;BME280;59543;37.950;-122.338;2023-04-29T03:17:54;101349.44;;;12.26;90.21
70011;BME280;59543;37.950;-122.338;2023-04-29T03:20:20;101345.97;;;12.06;90.53
70011;BME280;59543;37.950;-122.338;2023-04-29T03:22:47;101356.16;;;12.12;91.26
70011;BME280;59543;37.950;-122.338;2023-04-29T03:25:13;101353.47;;;12.03;91.58
70011;BME280;59543;37.950;-122.338;2023-04-29T03:27:39;101359.56;;;12.05;90.76
70011;BME280;59543;37.950;-122.338;2023-04-29T03:30:06;101365.97;;;12.04;91.20
70011;BME280;59543;37.950;-122.338;2023-04-29T03:32:32;101380.16;;;11.96;91.61
70011;BME280;59543;37.950;-122.338;2023-04-29T03:34:58;101374.91;;;11.95;91.24
70011;BME280;59543;37.950;-122.338;2023-04-29T03:37:25;101380.44;;;11.93;91.43
70011;BME280;59543;37.950;-122.338;2023-04-29T03:39:51;101378.31;;;12.06;90.96
70011;BME280;59543;37.950;-122.338;2023-04-29T03:42:17;101382.00;;;12.05;91.01
70011;BME280;59543;37.950;-122.338;2023-04-29T03:44:44;101386.81;;;11.92;91.86
70011;BME280;59543;37.950;-122.338;2023-04-29T03:47:10;101392.34;;;11.90;91.91
70011;BME280;59543;37.950;-122.338;2023-04-29T03:49:36;101390.66;;;11.99;91.72
70011;BME280;59543;37.950;-122.338;2023-04-29T03:52:03;101402.28;;;11.90;92.33
70011;BME280;59543;37.950;-122.338;2023-04-29T03:54:29;101406.53;;;12.02;92.30
70011;BME280;59543;37.950;-122.338;2023-04-29T03:56:56;101393.75;;;11.85;91.38
70011;BME280;59543;37.950;-122.338;2023-04-29T03:59:22;101399.41;;;11.82;91.86
70011;BME280;59543;37.950;-122.338;2023-04-29T04:01:48;101405.41;;;11.85;92.52
70011;BME280;59543;37.950;-122.338;2023-04-29T04:04:15;101405.34;;;11.76;93.28
70011;BME280;59543;37.950;-122.338;2023-04-29T04:06:42;101404.38;;;11.77;92.47
70011;BME280;59543;37.950;-122.338;2023-04-29T04:09:08;101417.28;;;11.73;92.71
70011;BME280;59543;37.950;-122.338;2023-04-29T04:11:35;101412.19;;;11.80;92.81
70011;BME280;59543;37.950;-122.338;2023-04-29T04:14:01;101411.75;;;11.75;93.26
70011;BME280;59543;37.950;-122.338;2023-04-29T04:16:27;101419.31;;;11.90;92.70
70011;BME280;59543;37.950;-122.338;2023-04-29T04:18:54;101424.00;;;11.88;91.94
70011;BME280;59543;37.950;-122.338;2023-04-29T04:21:20;101432.03;;;11.79;92.60
70011;BME280;59543;37.950;-122.338;2023-04-29T04:23:46;101439.09;;;11.70;91.95
70011;BME280;59543;37.950;-122.338;2023-04-29T04:26:13;101437.84;;;11.64;92.85
70011;BME280;59543;37.950;-122.338;2023-04-29T04:28:39;101443.78;;;11.58;92.83
70011;BME280;59543;37.950;-122.338;2023-04-29T04:31:05;101443.47;;;11.52;94.54
70011;BME280;59543;37.950;-122.338;2023-04-29T04:33:32;101445.94;;;11.64;94.13
70011;BME280;59543;37.950;-122.338;2023-04-29T04:35:59;101452.44;;;11.52;94.49
70011;BME280;59543;37.950;-122.338;2023-04-29T04:38:26;101456.72;;;11.64;93.26
70011;BME280;59543;37.950;-122.338;2023-04-29T04:40:52;101461.81;;;11.67;93.43
70011;BME280;59543;37.950;-122.338;2023-04-29T04:43:19;101467.22;;;11.67;93.68
70011;BME280;59543;37.950;-122.338;2023-04-29T04:45:45;101460.53;;;11.72;92.97
70011;BME280;59543;37.950;-122.338;2023-04-29T04:48:11;101475.44;;;11.76;92.86
70011;BME280;59543;37.950;-122.338;2023-04-29T04:50:38;101468.03;;;11.58;93.51
70011;BME280;59543;37.950;-122.338;2023-04-29T04:53:04;101469.75;;;11.59;93.24
70011;BME280;59543;37.950;-122.338;2023-04-29T04:55:31;101470.31;;;11.63;94.05
70011;BME280;59543;37.950;-122.338;2023-04-29T04:58:01;101474.41;;;11.57;94.14
70011;BME280;59543;37.950;-122.338;2023-04-29T05:00:28;101471.44;;;11.60;93.73
70011;BME280;59543;37.950;-122.338;2023-04-29T05:02:54;101476.53;;;11.63;93.80
70011;BME280;59543;37.950;-122.338;2023-04-29T05:05:21;101480.53;;;11.59;93.93
70011;BME280;59543;37.950;-122.338;2023-04-29T05:07:47;101483.22;;;11.59;94.22
70011;BME280;59543;37.950;-122.338;2023-04-29T05:10:13;101472.00;;;11.64;93.61
70011;BME280;59543;37.950;-122.338;2023-04-29T05:12:39;101485.34;;;11.56;94.38
70011;BME280;59543;37.950;-122.338;2023-04-29T05:15:06;101485.19;;;11.57;94.47
70011;BME280;59543;37.950;-122.338;2023-04-29T05:17:32;101489.69;;;11.47;95.03
70011;BME280;59543;37.950;-122.338;2023-04-29T05:20:01;101500.19;;;11.50;94.74
70011;BME280;59543;37.950;-122.338;2023-04-29T05:22:27;101497.25;;;11.53;94.07
70011;BME280;59543;37.950;-122.338;2023-04-29T05:24:53;101501.66;;;11.64;92.84
70011;BME280;59543;37.950;-122.338;2023-04-29T05:27:27;101490.56;;;11.57;92.99
70011;BME280;59543;37.950;-122.338;2023-04-29T05:29:53;101498.66;;;11.57;92.50
70011;BME280;59543;37.950;-122.338;2023-04-29T05:32:20;101502.38;;;11.66;92.00
70011;BME280;59543;37.950;-122.338;2023-04-29T05:34:46;101499.38;;;11.59;92.06
70011;BME280;59543;37.950;-122.338;2023-04-29T05:37:13;101497.97;;;11.55;92.80
70011;BME280;59543;37.950;-122.338;2023-04-29T05:39:39;101503.38;;;11.65;92.24
70011;BME280;59543;37.950;-122.338;2023-04-29T05:42:05;101508.75;;;11.65;91.76
70011;BME280;59543;37.950;-122.338;2023-04-29T05:44:32;101506.06;;;11.65;92.11
70011;BME280;59543;37.950;-122.338;2023-04-29T05:46:59;101514.81;;;11.57;92.52
70011;BME280;59543;37.950;-122.338;2023-04-29T05:49:25;101510.88;;;11.61;92.25
70011;BME280;59543;37.950;-122.338;2023-04-29T05:51:51;101506.63;;;11.68;91.77
70011;BME280;59543;37.950;-122.338;2023-04-29T05:54:18;101505.50;;;11.61;92.03
70011;BME280;59543;37.950;-122.338;2023-04-29T05:56:44;101504.34;;;11.64;92.13
70011;BME280;59543;37.950;-122.338;2023-04-29T05:59:10;101504.94;;;11.67;91.70
70011;BME280;59543;37.950;-122.338;2023-04-29T06:01:36;101510.88;;;11.61;91.34
70011;BME280;59543;37.950;-122.338;2023-04-29T06:04:03;101500.22;;;11.60;91.50
70011;BME280;59543;37.950;-122.338;2023-04-29T06:06:30;101505.91;;;11.66;90.82
70011;BME280;59543;37.950;-122.338;2023-04-29T06:08:56;101504.47;;;11.53;91.83
70011;BME280;59543;37.950;-122.338;2023-04-29T06:11:22;101499.66;;;11.56;91.70
70011;BME280;59543;37.950;-122.338;2023-04-29T06:13:49;101503.22;;;11.66;91.06
70011;BME280;59543;37.950;-122.338;2023-04-29T06:16:15;101501.81;;;11.62;91.42
70011;BME280;59543;37.950;-122.338;2023-04-29T06:18:41;101501.06;;;11.60;91.23
70011;BME280;59543;37.950;-122.338;2023-04-29T06:21:07;101499.44;;;11.38;91.63
70011;BME280;59543;37.950;-122.338;2023-04-29T06:23:34;101504.03;;;11.57;90.75
70011;BME280;59543;37.950;-122.338;2023-04-29T06:26:00;101506.56;;;11.49;91.92
70011;BME280;59543;37.950;-122.338;2023-04-29T06:28:26;101508.91;;;11.33;92.67
70011;BME280;59543;37.950;-122.338;2023-04-29T06:30:54;101508.53;;;11.37;92.42
70011;BME280;59543;37.950;-122.338;2023-04-29T06:33:20;101508.84;;;11.44;91.95
70011;BME280;59543;37.950;-122.338;2023-04-29T06:35:47;101505.13;;;11.45;91.82
70011;BME280;59543;37.950;-122.338;2023-04-29T06:38:13;101510.63;;;11.34;91.72
70011;BME280;59543;37.950;-122.338;2023-04-29T06:40:39;101515.59;;;11.38;91.41
70011;BME280;59543;37.950;-122.338;2023-04-29T06:43:05;101514.03;;;11.36;91.55
70011;BME280;59543;37.950;-122.338;2023-04-29T06:45:32;101515.47;;;11.40;91.23
70011;BME280;59543;37.950;-122.338;2023-04-29T06:47:58;101512.94;;;11.48;91.30
70011;BME280;59543;37.950;-122.338;2023-04-29T06:50:25;101522.69;;;11.39;91.77
70011;BME280;59543;37.950;-122.338;2023-04-29T06:52:51;101524.44;;;11.50;91.11
70011;BME280;59543;37.950;-122.338;2023-04-29T06:55:17;101521.75;;;11.50;91.19
70011;BME280;59543;37.950;-122.338;2023-04-29T06:57:43;101525.41;;;11.49;91.25
70011;BME280;59543;37.950;-122.338;2023-04-29T07:00:10;101518.75;;;11.43;91.54
70011;BME280;59543;37.950;-122.338;2023-04-29T07:02:36;101518.88;;;11.42;91.75
70011;BME280;59543;37.950;-122.338;2023-04-29T07:05:04;101512.09;;;11.48;91.38
70011;BME280;59543;37.950;-122.338;2023-04-29T07:07:31;101521.34;;;11.55;91.00
70011;BME280;59543;37.950;-122.338;2023-04-29T07:09:57;101519.06;;;11.50;90.90
70011;BME280;59543;37.950;-122.338;2023-04-29T07:12:23;101529.84;;;11.50;91.10
70011;BME280;59543;37.950;-122.338;2023-04-29T07:14:49;101526.56;;;11.47;90.91
70011;BME280;59543;37.950;-122.338;2023-04-29T07:17:16;101531.47;;;11.32;91.57
70011;BME280;59543;37.950;-122.338;2023-04-29T07:19:42;101531.50;;;11.41;91.27
70011;BME280;59543;37.950;-122.338;2023-04-29T07:22:09;101518.88;;;11.42;91.25
70011;BME280;59543;37.950;-122.338;2023-04-29T07:24:35;101523.97;;;11.35;92.08
70011;BME280;59543;37.950;-122.338;2023-04-29T07:27:01;101522.69;;;11.39;91.59
70011;BME280;59543;37.950;-122.338;2023-04-29T07:29:27;101522.69;;;11.39;91.42
70011;BME280;59543;37.950;-122.338;2023-04-29T07:31:53;101524.41;;;11.40;91.34
70011;BME280;59543;37.950;-122.338;2023-04-29T07:34:20;101523.69;;;11.38;91.42
70011;BME280;59543;37.950;-122.338;2023-04-29T07:36:46;101518.88;;;11.42;91.52
70011;BME280;59543;37.950;-122.338;2023-04-29T07:39:12;101525.81;;;11.35;91.99
70011;BME280;59543;37.950;-122.338;2023-04-29T07:41:40;101516.69;;;11.26;92.25
70011;BME280;59543;37.950;-122.338;2023-04-29T07:44:06;101529.94;;;11.39;91.51
70011;BME280;59543;37.950;-122.338;2023-04-29T07:46:32;101530.94;;;11.38;91.40
70011;BME280;59543;37.950;-122.338;2023-04-29T07:48:58;101526.22;;;11.40;91.29
70011;BME280;59543;37.950;-122.338;2023-04-29T07:51:25;101523.53;;;11.40;91.24
70011;BME280;59543;37.950;-122.338;2023-04-29T07:53:53;101532.16;;;11.34;91.36
70011;BME280;59543;37.950;-122.338;2023-04-29T07:56:19;101519.59;;;11.44;90.97
70011;BME280;59543;37.950;-122.338;2023-04-29T07:58:47;101530.94;;;11.38;91.16
70011;BME280;59543;37.950;-122.338;2023-04-29T08:01:14;101525.81;;;11.35;91.01
70011;BME280;59543;37.950;-122.338;2023-04-29T08:03:40;101528.09;;;11.39;91.04
70011;BME280;59543;37.950;-122.338;2023-04-29T08:06:06;101527.03;;;11.31;91.13
70011;BME280;59543;37.950;-122.338;2023-04-29T08:08:32;101526.50;;;11.37;90.90
70011;BME280;59543;37.950;-122.338;2023-04-29T08:10:59;101525.38;;;11.39;90.83
70011;BME280;59543;37.950;-122.338;2023-04-29T08:13:25;101522.97;;;11.36;90.83
70011;BME280;59543;37.950;-122.338;2023-04-29T08:15:52;101517.34;;;11.49;90.17
70011;BME280;59543;37.950;-122.338;2023-04-29T08:18:18;101510.53;;;11.45;90.73
70011;BME280;59543;37.950;-122.338;2023-04-29T08:20:46;101515.63;;;11.48;89.83
70011;BME280;59543;37.950;-122.338;2023-04-29T08:23:14;101508.38;;;11.39;90.74
70011;BME280;59543;37.950;-122.338;2023-04-29T08:25:41;101514.88;;;11.36;90.59
70011;BME280;59543;37.950;-122.338;2023-04-29T08:28:08;101512.91;;;11.38;90.21
70011;BME280;59543;37.950;-122.338;2023-04-29T08:30:43;101516.28;;;11.31;90.73
70011;BME280;59543;37.950;-122.338;2023-04-29T08:33:09;101514.88;;;11.36;89.97
70011;BME280;59543;37.950;-122.338;2023-04-29T08:35:37;101515.50;;;11.19;91.15
70011;BME280;59543;37.950;-122.338;2023-04-29T08:38:04;101513.72;;;11.29;91.26
70011;BME280;59543;37.950;-122.338;2023-04-29T08:40:43;101516.00;;;11.34;90.43
70011;BME280;59543;37.950;-122.338;2023-04-29T08:43:12;101505.34;;;11.23;89.86
70011;BME280;59543;37.950;-122.338;2023-04-29T08:45:42;101515.97;;;11.24;90.05
70011;BME280;59543;37.950;-122.338;2023-04-29T08:48:09;101506.81;;;11.36;89.45
70011;BME280;59543;37.950;-122.338;2023-04-29T08:50:38;101502.91;;;11.19;90.26
70011;BME280;59543;37.950;-122.338;2023-04-29T08:53:09;101502.19;;;11.17;90.36
70011;BME280;59543;37.950;-122.338;2023-04-29T08:55:45;101507.56;;;11.17;90.03
70011;BME280;59543;37.950;-122.338;2023-04-29T08:58:12;101505.88;;;11.16;90.42
70011;BME280;59543;37.950;-122.338;2023-04-29T09:00:43;101503.47;;;11.13;91.22
70011;BME280;59543;37.950;-122.338;2023-04-29T09:03:26;101506.56;;;11.18;90.55
70011;BME280;59543;37.950;-122.338;2023-04-29T09:05:55;101514.03;;;11.36;89.19
70011;BME280;59543;37.950;-122.338;2023-04-29T09:08:23;101508.34;;;11.29;89.31
70011;BME280;59543;37.950;-122.338;2023-04-29T09:10:50;101503.50;;;11.23;88.95
70011;BME280;59543;37.950;-122.338;2023-04-29T09:13:30;101503.38;;;11.04;89.93
70011;BME280;59543;37.950;-122.338;2023-04-29T09:15:57;101492.03;;;11.00;89.91
70011;BME280;59543;37.950;-122.338;2023-04-29T09:18:44;101491.53;;;10.85;90.90
70011;BME280;59543;37.950;-122.338;2023-04-29T09:21:23;101499.22;;;10.90;90.65
70011;BME280;59543;37.950;-122.338;2023-04-29T09:23:57;101492.38;;;10.86;90.81
70011;BME280;59543;37.950;-122.338;2023-04-29T09:26:24;101487.88;;;10.65;91.74
70011;BME280;59543;37.950;-122.338;2023-04-29T09:31:34;101486.94;;;10.76;91.54
70011;BME280;59543;37.950;-122.338;2023-04-29T09:34:00;101490.69;;;10.64;91.73
70011;BME280;59543;37.950;-122.338;2023-04-29T09:36:48;101496.66;;;10.67;91.54
70011;BME280;59543;37.950;-122.338;2023-04-29T09:44:18;101493.94;;;10.67;92.03
70011;BME280;59543;37.950;-122.338;2023-04-29T09:46:59;101496.06;;;10.64;92.68
70011;BME280;59543;37.950;-122.338;2023-04-29T09:49:35;101489.94;;;10.62;93.48
70011;BME280;59543;37.950;-122.338;2023-04-29T09:52:14;101495.69;;;10.68;92.97
70011;BME280;59543;37.950;-122.338;2023-04-29T09:54:45;101500.91;;;10.91;91.84
70011;BME280;59543;37.950;-122.338;2023-04-29T09:57:12;101487.25;;;10.83;91.92
70011;BME280;59543;37.950;-122.338;2023-04-29T09:59:41;101492.91;;;10.80;92.22
70011;BME280;59543;37.950;-122.338;2023-04-29T10:02:17;101488.78;;;10.75;93.01
70011;BME280;59543;37.950;-122.338;2023-04-29T10:04:46;101486.16;;;10.64;93.71
70011;BME280;59543;37.950;-122.338;2023-04-29T10:07:16;101482.59;;;10.64;94.13
70011;BME280;59543;37.950;-122.338;2023-04-29T10:09:44;101489.34;;;10.58;94.02
70011;BME280;59543;37.950;-122.338;2023-04-29T10:12:18;101489.25;;;10.60;93.92
70011;BME280;59543;37.950;-122.338;2023-04-29T10:18:40;101488.91;;;10.53;95.73
70011;BME280;59543;37.950;-122.338;2023-04-29T10:20:40;101482.66;;;10.52;96.15
70011;BME280;59543;37.950;-122.338;2023-04-29T10:23:12;101489.84;;;10.63;95.39
70011;BME280;59543;37.950;-122.338;2023-04-29T10:25:43;101487.66;;;10.57;95.26
70011;BME280;59543;37.950;-122.338;2023-04-29T10:28:13;101485.97;;;10.56;94.87
70011;BME280;59543;37.950;-122.338;2023-04-29T10:30:44;101463.19;;;10.60;93.53
70011;BME280;59543;37.950;-122.338;2023-04-29T10:33:15;101478.22;;;10.63;93.87
70011;BME280;59543;37.950;-122.338;2023-04-29T10:35:43;101484.13;;;10.57;94.33
70011;BME280;59543;37.950;-122.338;2023-04-29T10:38:19;101483.28;;;10.56;94.45
70011;BME280;59543;37.950;-122.338;2023-04-29T10:40:49;101486.94;;;10.55;94.09
70011;BME280;59543;37.950;-122.338;2023-04-29T10:43:22;101490.94;;;10.61;93.41
70011;BME280;59543;37.950;-122.338;2023-04-29T10:45:48;101482.06;;;10.49;94.12
70011;BME280;59543;37.950;-122.338;2023-04-29T10:48:15;101496.13;;;10.52;93.91
70011;BME280;59543;37.950;-122.338;2023-04-29T10:53:17;101497.84;;;10.53;93.64
70011;BME280;59543;37.950;-122.338;2023-04-29T10:55:52;101493.25;;;10.65;92.78
70011;BME280;59543;37.950;-122.338;2023-04-29T10:58:40;101509.13;;;10.68;92.37
70011;BME280;59543;37.950;-122.338;2023-04-29T11:01:10;101511.47;;;10.62;92.49
70011;BME280;59543;37.950;-122.338;2023-04-29T11:03:56;101507.78;;;10.42;93.75
70011;BME280;59543;37.950;-122.338;2023-04-29T11:14:28;101513.19;;;10.42;93.83
70011;BME280;59543;37.950;-122.338;2023-04-29T11:16:58;101514.81;;;10.54;93.36
70011;BME280;59543;37.950;-122.338;2023-04-29T11:19:31;101519.69;;;10.60;92.75
70011;BME280;59543;37.950;-122.338;2023-04-29T11:24:34;101525.59;;;10.75;91.65
70011;BME280;59543;37.950;-122.338;2023-04-29T11:27:04;101518.53;;;10.74;91.65
70011;BME280;59543;37.950;-122.338;2023-04-29T11:29:31;101513.59;;;10.79;90.88
70011;BME280;59543;37.950;-122.338;2023-04-29T11:32:01;101514.56;;;10.57;92.92
70011;BME280;59543;37.950;-122.338;2023-04-29T11:34:27;101514.16;;;10.62;91.93
70011;BME280;59543;37.950;-122.338;2023-04-29T11:36:53;101514.97;;;10.73;91.28
70011;BME280;59543;37.950;-122.338;2023-04-29T11:39:20;101513.19;;;10.63;91.68
70011;BME280;59543;37.950;-122.338;2023-04-29T11:41:47;101508.06;;;10.60;91.67
70011;BME280;59543;37.950;-122.338;2023-04-29T11:44:14;101503.41;;;10.62;92.38
70011;BME280;59543;37.950;-122.338;2023-04-29T11:46:40;101514.16;;;10.62;91.98
70011;BME280;59543;37.950;-122.338;2023-04-29T11:49:06;101512.00;;;10.56;92.20
70011;BME280;59543;37.950;-122.338;2023-04-29T11:51:32;101508.66;;;10.42;93.52
70011;BME280;59543;37.950;-122.338;2023-04-29T11:53:59;101517.56;;;10.43;93.30
70011;BME280;59543;37.950;-122.338;2023-04-29T11:56:25;101512.19;;;10.43;93.42
70011;BME280;59543;37.950;-122.338;2023-04-29T11:58:55;101512.97;;;10.34;92.93
70011;BME280;59543;37.950;-122.338;2023-04-29T12:01:21;101519.78;;;10.38;92.69
70011;BME280;59543;37.950;-122.338;2023-04-29T12:03:48;101511.41;;;10.52;91.89
70011;BME280;59543;37.950;-122.338;2023-04-29T12:06:15;101514.81;;;10.54;90.99
70011;BME280;59543;37.950;-122.338;2023-04-29T12:08:41;101514.28;;;10.39;90.89
70011;BME280;59543;37.950;-122.338;2023-04-29T12:11:08;101509.81;;;10.17;92.06
70011;BME280;59543;37.950;-122.338;2023-04-29T12:13:34;101502.94;;;10.24;92.28
70011;BME280;59543;37.950;-122.338;2023-04-29T12:16:01;101505.41;;;10.27;91.36
70011;BME280;59543;37.950;-122.338;2023-04-29T12:18:28;101507.03;;;10.07;91.87
70011;BME280;59543;37.950;-122.338;2023-04-29T12:20:55;101504.69;;;10.14;91.87
70011;BME280;59543;37.950;-122.338;2023-04-29T12:23:23;101501.88;;;10.16;92.01
70011;BME280;59543;37.950;-122.338;2023-04-29T12:25:58;101505.41;;;10.16;91.52
70011;BME280;59543;37.950;-122.338;2023-04-29T12:28:26;101514.47;;;10.15;91.59
70011;BME280;59543;37.950;-122.338;2023-04-29T12:30:53;101510.09;;;10.14;91.46
70011;BME280;59543;37.950;-122.338;2023-04-29T12:33:24;101516.03;;;10.18;91.86
70011;BME280;59543;37.950;-122.338;2023-04-29T12:35:55;101521.44;;;10.18;92.07
70011;BME280;59543;37.950;-122.338;2023-04-29T12:38:23;101517.59;;;10.32;91.33
70011;BME280;59543;37.950;-122.338;2023-04-29T12:40:53;101518.75;;;10.29;90.75
70011;BME280;59543;37.950;-122.338;2023-04-29T12:43:28;101513.94;;;10.21;91.71
70011;BME280;59543;37.950;-122.338;2023-04-29T12:46:01;101522.13;;;10.20;91.69
70011;BME280;59543;37.950;-122.338;2023-04-29T12:48:31;101528.84;;;10.25;91.47
70011;BME280;59543;37.950;-122.338;2023-04-29T12:50:58;101528.84;;;10.25;90.76
70011;BME280;59543;37.950;-122.338;2023-04-29T12:53:33;101531.78;;;10.22;91.11
70011;BME280;59543;37.950;-122.338;2023-04-29T12:56:00;101530.19;;;10.20;91.58
70011;BME280;59543;37.950;-122.338;2023-04-29T12:58:29;101532.19;;;10.29;91.24
70011;BME280;59543;37.950;-122.338;2023-04-29T13:00:56;101532.41;;;10.26;90.66
70011;BME280;59543;37.950;-122.338;2023-04-29T13:03:23;101540.09;;;10.19;90.16